SESA/SNC METAR and TAF weather

Enter ICAO airport designator
Station Type Date Time Source
SESA METAR 2018/12/18 20:00 UTC NOAA

SESA 182000Z 24010KT CAVOK 26/22 Q1010


Station Type Date Time Source
SESA Decoded METAR 2018/12/18 20:00 UTC NOAA

Salinas / General Ulpiano Paez, Ecuador (SESA) 02-12S 080-59W 8M
Dec 18, 2018 - 03:00 PM EST / 2018.12.18 2000 UTC
Wind: from the WSW (240 degrees) at 12 MPH (10 KT):0
Visibility: greater than 7 mile(s):0
Temperature: 78 F (26 C)
Dew Point: 71 F (22 C)
Relative Humidity: 78%
Pressure (altimeter): 29.83 in. Hg (1010 hPa)
ob: SESA 182000Z 24010KT CAVOK 26/22 Q1010
cycle: 20

Station Type Date Time Source
SESA TAF UTC NOAA

Error!


Example: see airport list